Lisbon Humberto Delgado Airport

Airport
ICAO code: 
LPPT
IATA Code: 
LIS
Summary
ICAO Region: 
EUR
Territory: 
Location: 
Portela, Lisbon
Serving: 
Lisbon
Elevation: 
374 ft
Coordinates: 
Aerial View: 
38° 46' 30.749" N, 9° 8' 4.724" W
Metar
Observation
LPPT 180930Z 06007KT CAVOK 07/04 Q1030
Station
Lisboa / Portela
Date/Time
2022-01-18 09:30:00
Wind direction
60°
Wind speed
07 kts
Lowest cloud amount
clouds and visibility OK
Temperature
7°C
Dew point
4°C
Humidity
81%
QNH
1030 hPa
Weather condition
n/a

Lisbon Portela Airport, also known as Lisbon Airport, is located 7 km north of Castle of São Jorge in the city of Lisbon, the capital of Portugal.

Climatology

Dry-summer subtropical ”Mediterranean" climate (Köppen climate classification Csa)

Runways

Designator Length Width Surface Rops
17/35 2400 45 ASP Yes/Yes
3/21 3805 45 ASP Yes/Yes
Airport map: 
Aerial View: 

SKYbrary Partners:

Safety knowledge contributed by: